createdAt,value
2017-07-10T00:02:58.989Z,99.80
2017-07-10T00:08:01.453Z,97.60
2017-07-10T00:13:04.383Z,97.50
2017-07-10T00:18:06.875Z,95.80
2017-07-10T00:23:09.365Z,99.90
2017-07-10T00:28:11.141Z,99.90
2017-07-10T00:33:13.634Z,97.00
2017-07-10T00:38:16.126Z,95.30
2017-07-10T00:43:18.618Z,96.00
2017-07-10T00:48:21.110Z,99.90
2017-07-10T00:53:23.603Z,99.90
2017-07-10T00:58:26.297Z,99.90
2017-07-10T01:03:28.970Z,99.90
2017-07-10T01:08:30.646Z,99.90
2017-07-10T01:13:32.317Z,99.90
2017-07-10T01:18:33.986Z,99.90
2017-07-10T01:23:35.686Z,99.00
2017-07-10T01:28:38.149Z,99.90
2017-07-10T01:33:39.850Z,99.90
2017-07-10T01:38:43.104Z,99.80
2017-07-10T01:43:45.037Z,99.80
2017-07-10T01:48:48.145Z,99.90
2017-07-10T01:53:49.920Z,99.90
2017-07-10T01:58:52.617Z,99.90
2017-07-10T02:03:54.392Z,99.90
2017-07-10T02:08:56.883Z,99.90
2017-07-10T02:13:59.376Z,99.90
2017-07-10T02:19:01.048Z,99.90
2017-07-10T02:24:03.517Z,99.90
2017-07-10T02:29:05.211Z,99.90
2017-07-10T02:34:07.641Z,99.90
2017-07-10T02:39:09.376Z,99.90
2017-07-10T02:44:26.574Z,99.90
2017-07-10T02:49:43.056Z,99.90
2017-07-10T02:54:59.605Z,99.90
2017-07-10T03:00:16.779Z,99.90
2017-07-10T03:05:33.283Z,99.90
2017-07-10T03:10:49.709Z,99.60
2017-07-10T03:16:06.129Z,99.90
2017-07-10T03:21:23.011Z,99.90
2017-07-10T03:26:26.017Z,99.90
2017-07-10T03:31:27.755Z,99.90
2017-07-10T03:36:30.186Z,97.40
2017-07-10T03:41:31.900Z,97.30
2017-07-10T03:46:33.593Z,98.10
2017-07-10T03:51:36.086Z,97.60
2017-07-10T03:56:39.010Z,96.50
2017-07-10T04:01:40.657Z,96.50
2017-07-10T04:06:43.148Z,94.90
2017-07-10T04:11:44.822Z,94.70
2017-07-10T04:16:47.314Z,93.90
2017-07-10T04:21:50.057Z,94.50
2017-07-10T04:26:51.791Z,95.40
2017-07-10T04:31:54.258Z,96.50
2017-07-10T04:36:56.133Z,96.50
2017-07-10T04:41:57.802Z,96.50
2017-07-10T04:47:00.627Z,96.20
2017-07-10T04:52:03.097Z,96.30
2017-07-10T04:57:04.775Z,96.30
2017-07-10T05:02:06.541Z,96.40
2017-07-10T05:07:08.526Z,97.20
2017-07-10T05:12:10.219Z,98.10
2017-07-10T05:17:12.686Z,99.90
2017-07-10T05:22:14.383Z,99.90
2017-07-10T05:27:17.490Z,99.90
2017-07-10T05:32:19.982Z,99.10
2017-07-10T05:37:23.227Z,96.60
2017-07-10T05:42:25.146Z,96.60
2017-07-10T05:47:26.842Z,96.30
2017-07-10T05:52:29.334Z,95.80
2017-07-10T05:57:31.801Z,95.40
2017-07-10T06:02:33.474Z,95.40
2017-07-10T06:07:35.274Z,96.60
2017-07-10T06:12:36.927Z,97.40
2017-07-10T06:18:02.561Z,98.10
2017-07-10T06:23:04.252Z,98.00
2017-07-10T06:28:05.897Z,98.30
2017-07-10T06:33:08.213Z,97.90
2017-07-10T06:38:10.705Z,97.90
2017-07-10T06:43:13.130Z,99.90
2017-07-10T06:48:14.805Z,99.90
2017-07-10T06:53:16.542Z,99.90
2017-07-10T06:58:18.318Z,99.90
2017-07-10T07:03:20.809Z,99.90
2017-07-10T07:08:23.273Z,99.90
2017-07-10T07:13:24.946Z,99.90
2017-07-10T07:18:26.648Z,99.90
2017-07-10T07:23:29.958Z,99.90
2017-07-10T07:28:31.733Z,99.90
2017-07-10T07:33:34.225Z,99.90
2017-07-10T07:38:36.654Z,99.90
2017-07-10T07:43:38.882Z,99.90
2017-07-10T07:48:41.221Z,99.90
2017-07-10T07:53:42.964Z,99.90
2017-07-10T07:58:44.737Z,99.90
2017-07-10T08:03:46.411Z,99.90
2017-07-10T08:08:48.903Z,99.90
2017-07-10T08:13:51.395Z,99.90
2017-07-10T08:18:53.861Z,99.90
2017-07-10T08:23:55.537Z,99.90
2017-07-10T08:28:57.247Z,99.90
2017-07-10T08:33:59.905Z,95.00
2017-07-10T08:39:01.604Z,95.00
2017-07-10T08:44:04.094Z,94.10
2017-07-10T08:49:06.586Z,92.70
2017-07-10T08:54:09.078Z,93.00
2017-07-10T08:59:11.571Z,92.40
2017-07-10T09:04:14.061Z,93.70
2017-07-10T09:09:16.555Z,92.30
2017-07-10T09:14:19.047Z,89.10
2017-07-10T09:19:21.537Z,88.80
2017-07-10T09:24:23.142Z,88.80
2017-07-10T09:29:24.882Z,85.40
2017-07-10T09:34:27.374Z,83.00
2017-07-10T09:39:29.049Z,83.00
2017-07-10T09:44:31.513Z,80.10
2017-07-10T09:49:33.190Z,80.10
2017-07-10T09:54:34.884Z,77.50
2017-07-10T09:59:37.376Z,80.90
2017-07-10T10:04:39.867Z,73.20
2017-07-10T10:09:42.318Z,71.80
2017-07-10T10:14:44.033Z,71.80
2017-07-10T10:19:46.525Z,73.90
2017-07-10T10:24:49.538Z,74.90
2017-07-10T10:29:51.826Z,74.90
2017-07-10T10:34:53.590Z,76.80
2017-07-10T10:39:56.083Z,76.20
2017-07-10T10:44:58.574Z,74.70
2017-07-10T10:50:01.068Z,73.40
2017-07-10T10:55:03.494Z,73.40
2017-07-10T11:00:05.231Z,73.40
2017-07-10T11:05:07.657Z,77.40
2017-07-10T11:10:09.396Z,77.20
2017-07-10T11:15:26.841Z,78.40
2017-07-10T11:20:29.329Z,76.60
2017-07-10T11:25:31.823Z,75.10
2017-07-10T11:30:34.314Z,75.30
2017-07-10T11:35:36.806Z,68.20
2017-07-10T11:40:39.297Z,72.00
2017-07-10T11:45:41.791Z,71.60
2017-07-10T11:50:44.283Z,73.60
2017-07-10T11:55:46.774Z,76.20
2017-07-10T12:00:49.266Z,77.20
2017-07-10T12:05:51.759Z,77.20
2017-07-10T12:10:54.186Z,75.90
2017-07-10T12:15:56.494Z,75.80
2017-07-10T12:20:58.186Z,78.90
2017-07-10T12:25:59.884Z,86.90
2017-07-10T12:31:02.376Z,99.90
2017-07-10T12:36:04.848Z,99.90
2017-07-10T12:41:06.517Z,99.90
2017-07-10T12:46:08.189Z,99.90
2017-07-10T12:51:09.886Z,99.90
2017-07-10T12:56:12.379Z,96.30
2017-07-10T13:01:14.870Z,94.60
2017-07-10T13:06:18.464Z,90.10
2017-07-10T13:11:20.879Z,90.30
2017-07-10T13:16:23.809Z,89.00
2017-07-10T13:21:25.739Z,86.70
2017-07-10T13:26:30.098Z,87.00
2017-07-10T13:31:32.998Z,85.70
2017-07-10T13:36:35.693Z,87.80
2017-07-10T13:41:38.596Z,86.60
2017-07-10T13:46:41.884Z,86.10
2017-07-10T13:51:44.299Z,84.30
2017-07-10T13:56:46.731Z,83.80
2017-07-10T14:01:49.871Z,80.00
2017-07-10T14:06:52.215Z,75.50
2017-07-10T14:11:55.595Z,74.20
2017-07-10T14:16:58.703Z,73.30
2017-07-10T14:22:00.960Z,73.40
2017-07-10T14:27:02.660Z,72.20
2017-07-10T14:32:05.153Z,74.70
2017-07-10T14:37:07.502Z,74.10
2017-07-10T14:42:09.216Z,75.60
2017-07-10T14:47:10.965Z,76.80
2017-07-10T14:52:12.637Z,77.40
2017-07-10T14:57:14.337Z,69.00
2017-07-10T15:02:16.829Z,65.40
2017-07-10T15:07:18.605Z,64.80
2017-07-10T15:12:21.096Z,67.60
2017-07-10T15:17:23.564Z,69.10
2017-07-10T15:22:25.261Z,69.00
2017-07-10T15:27:27.724Z,63.90
2017-07-10T15:32:29.340Z,63.90
2017-07-10T15:37:31.742Z,51.10
2017-07-10T15:42:33.408Z,51.20
2017-07-10T15:47:35.132Z,52.80
2017-07-10T15:52:36.752Z,53.60
2017-07-10T15:57:38.509Z,56.70
2017-07-10T16:02:40.967Z,58.20
2017-07-10T16:07:42.672Z,58.20
2017-07-10T16:12:44.344Z,59.30
2017-07-10T16:17:46.834Z,61.30
2017-07-10T16:22:48.609Z,61.30
2017-07-10T16:27:51.033Z,63.10
2017-07-10T16:32:52.978Z,62.90
2017-07-10T16:37:55.410Z,65.40
2017-07-10T16:42:57.143Z,65.00
2017-07-10T16:47:59.635Z,69.10
2017-07-10T16:53:02.126Z,69.10
2017-07-10T16:58:04.619Z,69.10
2017-07-10T17:03:08.135Z,69.80
2017-07-10T17:08:10.628Z,70.40
2017-07-10T17:13:12.401Z,70.40
2017-07-10T17:18:14.690Z,71.30
2017-07-10T17:23:17.311Z,70.50
2017-07-10T17:28:20.313Z,71.10
2017-07-10T17:33:21.960Z,72.10
2017-07-10T17:38:26.168Z,71.10
2017-07-10T17:43:27.968Z,71.80
2017-07-10T17:48:29.745Z,72.00
2017-07-10T17:53:31.519Z,69.50
2017-07-10T17:58:34.937Z,69.90
2017-07-10T18:03:51.657Z,69.90
2017-07-10T18:08:53.331Z,70.80
2017-07-10T18:13:55.824Z,72.40
2017-07-10T18:18:58.314Z,72.10
2017-07-10T18:24:00.780Z,72.30
2017-07-10T18:29:02.480Z,72.30
2017-07-10T18:34:04.971Z,70.00
2017-07-10T18:39:07.471Z,70.00
2017-07-10T18:44:09.966Z,70.10
2017-07-10T18:49:13.440Z,69.80
2017-07-10T18:54:15.349Z,69.60
2017-07-10T18:59:17.768Z,70.50
2017-07-10T19:04:19.336Z,70.50
2017-07-10T19:09:21.058Z,70.30
2017-07-10T19:14:22.684Z,70.90
2017-07-10T19:19:24.362Z,71.00
2017-07-10T19:24:26.323Z,69.20
2017-07-10T19:29:28.186Z,68.40
2017-07-10T19:34:30.682Z,68.10
2017-07-10T19:39:32.284Z,68.10
2017-07-10T19:44:33.957Z,67.90
2017-07-10T19:49:35.649Z,68.70
2017-07-10T19:54:37.340Z,68.90
2017-07-10T19:59:39.015Z,70.40
2017-07-10T20:04:41.124Z,70.90
2017-07-10T20:09:42.898Z,71.40
2017-07-10T20:14:45.392Z,71.10
2017-07-10T20:19:48.370Z,72.10
2017-07-10T20:24:50.026Z,72.10
2017-07-10T20:29:51.682Z,70.90
2017-07-10T20:34:53.411Z,69.70
2017-07-10T20:39:55.907Z,71.80
2017-07-10T20:44:58.395Z,73.10
2017-07-10T20:50:00.888Z,74.50
2017-07-10T20:55:03.319Z,74.00
2017-07-10T21:00:05.052Z,74.00
2017-07-10T21:05:07.544Z,73.60
2017-07-10T21:10:10.035Z,73.60
2017-07-10T21:15:12.527Z,73.00
2017-07-10T21:20:15.019Z,72.10
2017-07-10T21:25:17.428Z,73.90
2017-07-10T21:30:19.156Z,73.70
2017-07-10T21:35:20.830Z,73.90
2017-07-10T21:40:22.502Z,74.80
2017-07-10T21:45:24.173Z,75.70
2017-07-10T21:50:25.848Z,76.20
2017-07-10T21:55:27.580Z,76.90
2017-07-10T22:00:29.153Z,77.50
2017-07-10T22:05:30.725Z,77.90
2017-07-10T22:10:32.400Z,78.60
2017-07-10T22:15:34.136Z,79.50
2017-07-10T22:20:36.629Z,82.10
2017-07-10T22:25:39.120Z,83.30
2017-07-10T22:30:41.614Z,83.80
2017-07-10T22:35:44.043Z,84.40
2017-07-10T22:40:45.780Z,84.30
2017-07-10T22:45:48.206Z,85.70
2017-07-10T22:50:50.622Z,85.70
2017-07-10T22:55:52.414Z,85.90
2017-07-10T23:00:54.108Z,87.50
2017-07-10T23:05:56.599Z,88.80
2017-07-10T23:10:59.072Z,88.40
2017-07-10T23:16:00.867Z,88.90
2017-07-10T23:21:03.360Z,89.20
2017-07-10T23:26:05.790Z,89.40
2017-07-10T23:31:07.497Z,89.40
2017-07-10T23:36:09.194Z,89.80
2017-07-10T23:41:11.686Z,92.20
2017-07-10T23:46:13.391Z,91.70
2017-07-10T23:51:15.056Z,93.90
2017-07-10T23:56:18.174Z,96.10
